Aviation Digital Data Service (ADDS)

Output produced by METARs form (1235 UTC 15 July 2020)
found at http://www.aviationweather.gov/metar/data/
 
METAR text: KFAT 151153Z 30004KT 10SM CLR 21/12 A2985 RMK AO2 SLP102 T02060122 10278 20200 53005
Conditions at: KFAT (FRESNO , CA, US) observed 1153 UTC 15 July 2020
Temperature: 20.6°C (69°F)
Dewpoint: 12.2°C (54°F) [RH = 59%]
Pressure (altimeter): 29.85 inches Hg (1010.9 mb)
[Sea-level pressure: 1010.2 mb]
Winds: from the WNW (300 degrees) at 5 MPH (4 knots; 2.1 m/s)
Visibility: 10 or more miles (16+ km)
Ceiling: at least 12,000 feet AGL
Clouds: sky clear below 12,000 feet AGL
Weather: no significant weather observed at this time

Forecast for: KFAT (FRESNO , CA, US)
Text: KFAT 151120Z 1512/1612 31008KT P6SM SKC
Forecast period: 1200 UTC 15 July 2020 to 1200 UTC 16 July 2020
Forecast type: FROM: standard forecast or significant change
Winds: from the NW (310 degrees) at 9 MPH (8 knots; 4.1 m/s)
Visibility: 6 or more miles 10+ km)
Clouds: clear skies
Weather: no significant weather forecast for this period